Time;durP1;ratioP1;P1;durP2;ratioP2;P2;SDS_P1;SDS_P2;PMS_P1;PMS_P2;Temp;Humidity;BMP_temperature;BMP_pressure;BME280_temperature;BME280_humidity;BME280_pressure;Samples;Min_cycle;Max_cycle;Signal;HPM_P1;HPM_P2
2022/08/02 05:23:41;;;;;;;22.77;20.63;;;18.00;99.90;;;;;;5150027;23;20543;-92
2022/08/02 05:26:06;;;;;;;3.73;3.53;;;17.90;99.90;;;;;;4938534;28;20489;-93
2022/08/02 05:28:32;;;;;;;4.40;3.00;;;18.00;99.90;;;;;;4954487;28;20664;-93
2022/08/02 05:31:03;;;;;;;3.20;3.00;;;18.20;99.90;;;;;;4937980;28;20277;-94
2022/08/02 05:33:29;;;;;;;3.87;3.50;;;18.20;99.90;;;;;;4964272;28;20226;-93
2022/08/02 05:35:57;;;;;;;3.57;3.33;;;18.30;99.90;;;;;;4959552;28;20468;-92
2022/08/02 05:38:31;;;;;;;3.40;2.80;;;18.40;99.90;;;;;;4962353;28;20198;-93
2022/08/02 05:40:59;;;;;;;3.20;3.00;;;18.40;99.90;;;;;;4945911;28;20456;-93
2022/08/02 05:43:24;;;;;;;3.63;3.03;;;18.50;99.90;;;;;;4968336;28;20446;-94
2022/08/02 05:45:52;;;;;;;3.33;3.03;;;18.60;99.90;;;;;;4961307;28;21366;-94
2022/08/02 05:48:17;;;;;;;3.63;3.07;;;18.60;99.90;;;;;;4954256;28;20563;-94
2022/08/02 05:50:46;;;;;;;3.73;3.40;;;18.60;99.90;;;;;;4963164;28;20514;-95
2022/08/02 05:53:35;;;;;;;3.07;2.77;;;18.50;99.90;;;;;;4958406;28;20525;-93
2022/08/02 05:56:18;;;;;;;3.30;3.00;;;18.40;99.90;;;;;;4954983;28;20441;-94
2022/08/02 05:59:16;;;;;;;3.93;2.90;;;18.30;99.90;;;;;;4964715;28;20453;-93
2022/08/02 06:01:43;;;;;;;3.00;2.70;;;18.30;99.90;;;;;;4923438;28;20502;-93
2022/08/02 06:04:14;;;;;;;2.80;2.60;;;18.40;99.90;;;;;;4965520;28;20472;-93
2022/08/02 06:06:43;;;;;;;4.30;2.83;;;18.60;99.90;;;;;;4958806;28;20966;-95
2022/08/02 06:09:19;;;;;;;3.50;3.20;;;18.60;99.90;;;;;;4962233;28;20816;-93
2022/08/02 06:11:55;;;;;;;3.03;2.77;;;18.70;99.90;;;;;;4963375;28;20532;-95
2022/08/02 06:14:32;;;;;;;3.03;2.73;;;18.90;99.90;;;;;;4946588;28;20449;-94
2022/08/02 06:16:59;;;;;;;2.97;2.77;;;19.00;99.90;;;;;;4945881;28;20504;-94
2022/08/02 06:19:28;;;;;;;3.50;3.30;;;18.90;99.90;;;;;;4959583;28;20563;-94
2022/08/02 06:21:54;;;;;;;3.90;3.50;;;18.90;99.90;;;;;;4959201;28;20508;-94
2022/08/02 06:24:24;;;;;;;3.57;2.90;;;18.90;99.90;;;;;;4938104;28;20599;-95
2022/08/02 06:26:53;;;;;;;3.10;2.90;;;18.80;99.90;;;;;;4939581;28;20803;-94
2022/08/02 06:29:20;;;;;;;3.10;2.90;;;18.80;99.90;;;;;;4960088;28;20445;-92
2022/08/02 06:31:50;;;;;;;2.97;2.77;;;18.80;99.90;;;;;;4958791;28;20539;-95
2022/08/02 06:34:15;;;;;;;4.03;3.00;;;18.90;99.90;;;;;;4960420;28;20446;-95
2022/08/02 06:36:55;;;;;;;3.17;2.87;;;18.90;99.90;;;;;;4963902;28;20433;-95
2022/08/02 06:39:50;;;;;;;3.80;2.97;;;19.00;99.90;;;;;;4957115;28;20453;-95
2022/08/02 06:42:23;;;;;;;2.93;2.73;;;19.10;99.90;;;;;;4941181;28;20449;-93
2022/08/02 06:44:48;;;;;;;2.83;2.63;;;19.20;99.90;;;;;;4943109;28;20532;-93
2022/08/02 06:47:14;;;;;;;3.67;3.37;;;19.20;99.90;;;;;;4965070;28;20536;-93
2022/08/02 06:49:45;;;;;;;3.30;3.07;;;19.20;99.90;;;;;;4967972;28;20192;-94
2022/08/02 06:52:21;;;;;;;3.60;3.33;;;19.30;99.90;;;;;;4958999;28;20218;-94
2022/08/02 06:55:04;;;;;;;3.60;3.30;;;19.40;99.90;;;;;;4949353;28;20456;-94
2022/08/02 06:57:37;;;;;;;4.30;2.97;;;19.50;99.90;;;;;;4946524;28;20857;-94
2022/08/02 07:00:07;;;;;;;3.43;3.20;;;19.70;99.90;;;;;;4937873;28;21554;-93
2022/08/02 07:02:35;;;;;;;3.43;3.13;;;19.80;99.90;;;;;;4939656;28;20448;-94
2022/08/02 07:05:06;;;;;;;3.43;3.13;;;19.80;99.90;;;;;;4935143;28;20452;-95
2022/08/02 07:07:34;;;;;;;4.27;3.97;;;19.90;99.90;;;;;;4941388;28;20853;-92
2022/08/02 17:44:43;;;;;;;2.53;2.43;;;36.60;43.20;;;;;;6109791;23;20219;31
2022/08/02 17:47:12;;;;;;;3.30;3.10;;;35.30;44.90;;;;;;4950297;28;20265;-96
2022/08/02 17:49:39;;;;;;;3.23;3.03;;;34.10;49.30;;;;;;5066120;23;20253;-96
2022/08/02 17:52:05;;;;;;;4.30;3.90;;;32.80;54.40;;;;;;4954450;28;20620;-96
2022/08/02 17:54:32;;;;;;;3.50;3.30;;;31.50;58.70;;;;;;4963307;28;20448;-96
2022/08/02 17:57:04;;;;;;;5.20;4.37;;;30.60;60.70;;;;;;4950284;28;20421;-96
2022/08/02 17:59:30;;;;;;;3.30;3.10;;;29.80;64.00;;;;;;4961445;28;20792;-93
2022/08/02 18:07:03;;;;;;;3.80;3.50;;;28.20;74.80;;;;;;4996077;28;20484;-96
2022/08/02 18:09:30;;;;;;;4.17;3.87;;;27.80;77.00;;;;;;5044427;23;20489;-94
2022/08/02 18:12:18;;;;;;;4.80;4.40;;;27.50;78.10;;;;;;4977317;28;20440;-96
2022/08/02 18:14:47;;;;;;;5.77;5.30;;;27.20;80.90;;;;;;4983951;28;20452;-92
2022/08/02 18:17:15;;;;;;;4.83;4.50;;;27.00;83.60;;;;;;4951088;28;20515;-94
2022/08/02 18:19:41;;;;;;;4.10;3.90;;;26.70;86.60;;;;;;4965249;28;20452;-94
2022/08/02 18:22:09;;;;;;;4.07;3.77;;;26.40;89.40;;;;;;4963057;28;22272;-96
2022/08/02 18:24:36;;;;;;;4.70;4.30;;;26.20;92.20;;;;;;4952154;28;20292;-95
2022/08/02 18:27:01;;;;;;;4.13;3.93;;;26.10;95.00;;;;;;4960027;28;20875;-92
2022/08/02 18:29:27;;;;;;;4.50;4.20;;;25.90;97.20;;;;;;4955603;28;20589;-94
2022/08/02 18:31:53;;;;;;;4.70;4.30;;;25.60;97.00;;;;;;4972950;28;20300;-94
2022/08/02 18:34:19;;;;;;;5.20;4.80;;;25.30;96.80;;;;;;4956971;28;20194;-91
2022/08/02 18:36:45;;;;;;;4.27;4.07;;;25.10;98.00;;;;;;4953906;28;20560;-91
2022/08/02 18:39:10;;;;;;;4.23;3.93;;;25.00;98.50;;;;;;4948316;28;20437;-93
2022/08/02 18:41:36;;;;;;;4.10;3.70;;;24.90;98.80;;;;;;4969432;28;20193;-92
2022/08/02 18:44:03;;;;;;;4.37;3.97;;;24.80;99.80;;;;;;4953658;28;20186;-94
2022/08/02 18:46:29;;;;;;;4.10;3.80;;;24.60;99.80;;;;;;4955545;28;20201;-94
2022/08/02 18:48:54;;;;;;;5.07;4.67;;;24.50;99.90;;;;;;4957259;28;20459;-94
2022/08/02 18:51:20;;;;;;;3.90;3.70;;;24.30;99.90;;;;;;4969146;28;20457;-92
2022/08/02 18:53:49;;;;;;;5.70;4.27;;;24.20;99.90;;;;;;4954010;28;20225;-91
2022/08/02 18:56:15;;;;;;;4.57;4.20;;;24.00;99.90;;;;;;4971129;28;20191;-91
2022/08/02 18:58:40;;;;;;;4.77;4.37;;;23.90;99.90;;;;;;4964980;28;20536;-95
2022/08/02 19:01:06;;;;;;;4.30;4.00;;;23.80;99.90;;;;;;4958660;28;20236;-94
2022/08/02 19:03:32;;;;;;;3.97;3.77;;;23.70;99.90;;;;;;4971192;28;20197;-94
2022/08/02 19:05:58;;;;;;;4.10;3.77;;;23.60;99.90;;;;;;4964892;28;20602;-91
2022/08/02 19:08:23;;;;;;;4.90;4.60;;;23.50;99.90;;;;;;4956536;28;20217;-91
2022/08/02 19:10:49;;;;;;;6.33;5.90;;;23.40;99.90;;;;;;4947467;28;21021;-92
2022/08/02 19:13:31;;;;;;;5.77;5.27;;;23.30;99.90;;;;;;4956979;28;20660;-93
2022/08/02 19:15:56;;;;;;;6.07;4.13;;;23.30;99.90;;;;;;4957437;28;20189;-92
2022/08/02 19:18:22;;;;;;;4.60;4.30;;;23.30;99.90;;;;;;4962843;28;20445;-91
2022/08/02 19:20:54;;;;;;;4.37;3.87;;;23.20;99.90;;;;;;4959823;28;20186;-93
2022/08/02 19:23:19;;;;;;;6.37;4.00;;;23.20;99.90;;;;;;4948369;28;20189;-90
2022/08/02 19:25:46;;;;;;;4.20;3.90;;;23.10;99.90;;;;;;4938828;28;21025;-91
2022/08/02 19:28:13;;;;;;;4.20;3.90;;;23.00;99.90;;;;;;4949729;28;20901;-89
2022/08/02 19:30:41;;;;;;;10.60;9.70;;;22.90;99.90;;;;;;4947690;28;20461;-91
2022/08/02 19:33:07;;;;;;;5.30;4.90;;;22.80;99.90;;;;;;4969694;28;20516;-90
2022/08/02 19:35:33;;;;;;;3.97;3.67;;;22.80;99.90;;;;;;4968589;28;21188;-90
2022/08/02 19:38:09;;;;;;;4.07;3.77;;;22.70;99.90;;;;;;4951960;28;20196;-92
2022/08/02 19:40:37;;;;;;;6.30;5.80;;;22.60;99.90;;;;;;4952106;28;20638;-91
2022/08/02 19:43:02;;;;;;;5.90;5.30;;;22.50;99.90;;;;;;4948075;28;20455;-90
2022/08/02 19:45:28;;;;;;;4.60;4.20;;;22.60;99.90;;;;;;4951000;28;20428;-93
2022/08/02 19:47:54;;;;;;;3.97;3.63;;;22.60;99.90;;;;;;4955916;28;20225;-92
2022/08/02 19:50:20;;;;;;;4.00;3.70;;;22.60;99.90;;;;;;4952647;28;20268;-90
2022/08/02 19:52:46;;;;;;;4.13;3.93;;;22.50;99.90;;;;;;4952871;28;20484;-93
2022/08/02 19:55:13;;;;;;;4.50;4.20;;;22.40;99.90;;;;;;4967963;28;20197;-93
2022/08/02 19:57:45;;;;;;;3.80;3.50;;;22.40;99.90;;;;;;4952600;28;20182;-94
2022/08/02 20:00:13;;;;;;;4.00;3.67;;;22.30;99.90;;;;;;4951566;28;21163;-91
2022/08/02 20:02:39;;;;;;;3.57;3.37;;;22.30;99.90;;;;;;4970637;28;20438;-93
2022/08/02 20:05:06;;;;;;;4.73;4.40;;;22.10;99.90;;;;;;4961027;28;20456;-92
2022/08/02 20:07:31;;;;;;;4.97;4.63;;;22.00;99.90;;;;;;4962158;28;20188;-94
2022/08/02 20:10:02;;;;;;;5.90;5.40;;;21.90;99.90;;;;;;4970262;28;20922;-92
2022/08/02 20:12:57;;;;;;;4.27;3.97;;;21.90;99.90;;;;;;4970768;28;20221;-93
2022/08/02 20:15:22;;;;;;;5.30;4.83;;;21.90;99.90;;;;;;4971662;28;20443;-95
2022/08/02 20:17:48;;;;;;;5.03;4.70;;;21.90;99.90;;;;;;4981653;28;20447;-92
2022/08/02 20:20:13;;;;;;;4.03;3.83;;;21.80;99.90;;;;;;4974184;28;20182;-91
2022/08/02 20:25:24;;;;;;;4.10;3.80;;;21.70;99.90;;;;;;4989731;28;20208;-94
2022/08/02 20:27:50;;;;;;;3.80;3.60;;;21.60;99.90;;;;;;4960211;28;20433;-92
2022/08/02 20:30:20;;;;;;;4.13;3.83;;;21.50;99.90;;;;;;4953539;28;20437;-91
2022/08/02 20:32:46;;;;;;;4.07;3.70;;;21.50;99.90;;;;;;4954122;28;21002;-92
2022/08/02 20:35:14;;;;;;;4.50;4.10;;;21.40;99.90;;;;;;4955397;28;20452;-92
2022/08/02 20:37:40;;;;;;;4.00;3.70;;;21.40;99.90;;;;;;4971826;28;20187;-93
2022/08/02 20:40:06;;;;;;;4.47;4.17;;;21.40;99.90;;;;;;4948833;28;20680;-92
2022/08/02 20:42:33;;;;;;;4.60;4.30;;;21.40;99.90;;;;;;4950750;28;20434;-92
2022/08/02 20:44:58;;;;;;;4.53;4.10;;;21.20;99.90;;;;;;4973989;28;20700;-96
2022/08/02 20:47:24;;;;;;;4.63;4.00;;;21.30;99.90;;;;;;4965240;28;20540;-95
2022/08/02 20:52:41;;;;;;;7.10;3.60;;;21.40;99.90;;;;;;4985440;28;20276;-96
2022/08/02 20:55:15;;;;;;;4.30;4.00;;;21.40;99.90;;;;;;4978019;28;20436;-96
2022/08/02 20:57:43;;;;;;;5.43;4.10;;;21.40;99.90;;;;;;4984966;28;20474;-94
2022/08/02 21:00:12;;;;;;;4.60;4.30;;;21.30;99.90;;;;;;4984230;28;20498;-96
2022/08/02 21:02:39;;;;;;;4.90;4.50;;;21.20;99.90;;;;;;4969878;28;20436;-94
2022/08/02 21:05:07;;;;;;;3.83;3.57;;;21.10;99.90;;;;;;4974219;28;20496;-95
2022/08/02 21:07:34;;;;;;;5.43;4.93;;;21.10;99.90;;;;;;4957667;28;21645;-93
2022/08/02 21:10:42;;;;;;;5.13;4.43;;;21.10;99.90;;;;;;4966907;28;20552;-93
2022/08/02 21:13:27;;;;;;;4.13;3.83;;;21.10;99.90;;;;;;4950063;28;20496;-94
2022/08/02 21:15:54;;;;;;;4.70;4.20;;;21.00;99.90;;;;;;4962007;28;20512;-94
2022/08/02 21:18:22;;;;;;;4.27;3.97;;;21.10;99.90;;;;;;4950448;28;20440;-95
2022/08/02 21:20:50;;;;;;;4.83;3.77;;;20.90;99.90;;;;;;4954657;28;20634;-95
2022/08/02 21:23:16;;;;;;;3.93;3.63;;;20.80;99.90;;;;;;4948386;28;20460;-95
2022/08/02 21:25:42;;;;;;;4.73;4.27;;;20.70;99.90;;;;;;4982508;28;20500;-95
2022/08/02 21:28:08;;;;;;;4.30;4.00;;;20.70;99.90;;;;;;4935220;28;20595;-94
2022/08/02 21:30:38;;;;;;;4.23;3.93;;;20.70;99.90;;;;;;4948293;28;20193;-95
2022/08/02 21:33:04;;;;;;;4.13;3.83;;;20.90;99.90;;;;;;4937430;28;20221;-95
2022/08/02 21:35:29;;;;;;;3.90;3.70;;;20.90;99.90;;;;;;4954216;28;20469;-94
2022/08/02 21:37:55;;;;;;;4.40;3.97;;;20.90;99.90;;;;;;4969020;28;20312;-94
2022/08/02 21:40:23;;;;;;;3.97;3.67;;;20.80;99.90;;;;;;4980307;28;20193;-95
2022/08/02 21:42:52;;;;;;;4.53;4.23;;;20.70;99.90;;;;;;4983395;28;20455;-96
2022/08/02 21:45:18;;;;;;;4.37;4.07;;;20.50;99.90;;;;;;4967286;28;20445;-95
2022/08/02 21:47:45;;;;;;;4.20;3.90;;;20.40;99.90;;;;;;4955835;28;20810;-95
2022/08/02 21:50:11;;;;;;;4.20;3.80;;;20.40;99.90;;;;;;4934268;28;20604;-92
2022/08/02 21:52:36;;;;;;;4.40;4.10;;;20.30;99.90;;;;;;4941333;28;20513;-94
2022/08/02 21:55:03;;;;;;;4.30;4.00;;;20.30;99.90;;;;;;4956033;28;20193;-95
2022/08/02 21:57:30;;;;;;;4.60;4.20;;;20.30;99.90;;;;;;4966355;28;20190;-95
2022/08/02 22:00:01;;;;;;;3.57;3.33;;;20.20;99.90;;;;;;4947025;28;20519;-95
2022/08/02 22:02:46;;;;;;;6.20;4.13;;;20.10;99.90;;;;;;4968971;28;20610;-95
2022/08/02 22:05:14;;;;;;;4.13;3.70;;;20.10;99.90;;;;;;4959036;28;20540;-95
2022/08/02 22:07:40;;;;;;;4.63;3.70;;;20.10;99.90;;;;;;4977148;28;20193;-95
2022/08/02 22:10:07;;;;;;;3.60;3.40;;;20.20;99.90;;;;;;4954854;28;20437;-94
2022/08/02 22:12:35;;;;;;;4.20;3.90;;;20.20;99.90;;;;;;4956309;28;20261;-95
2022/08/02 22:15:04;;;;;;;4.60;4.20;;;20.20;99.90;;;;;;4957496;28;20921;-95
2022/08/02 22:17:30;;;;;;;4.90;4.40;;;20.10;99.90;;;;;;4950912;28;20812;-94
2022/08/02 22:19:56;;;;;;;4.30;4.00;;;20.00;99.90;;;;;;4965298;28;20574;-93
2022/08/02 22:22:22;;;;;;;5.73;4.07;;;19.90;99.90;;;;;;4949269;28;20266;-93
2022/08/02 22:24:47;;;;;;;4.77;4.37;;;19.90;99.90;;;;;;4964960;28;20194;-92
2022/08/02 22:27:13;;;;;;;5.50;5.07;;;19.90;99.90;;;;;;4947305;28;20458;-94
2022/08/02 22:29:39;;;;;;;4.60;4.20;;;19.80;99.90;;;;;;4968408;28;20197;-94
2022/08/02 22:32:06;;;;;;;4.63;4.23;;;19.70;99.90;;;;;;4940067;28;20457;-94
2022/08/02 22:34:31;;;;;;;4.37;4.07;;;19.60;99.90;;;;;;4953605;28;20189;-94
2022/08/02 22:36:59;;;;;;;5.20;4.80;;;19.60;99.90;;;;;;4953609;28;20451;-94
2022/08/02 22:39:40;;;;;;;5.73;5.20;;;19.60;99.90;;;;;;4967889;28;20190;-94
2022/08/02 22:42:08;;;;;;;4.43;4.03;;;19.50;99.90;;;;;;4954675;28;20448;-95
2022/08/02 22:44:34;;;;;;;4.40;4.10;;;19.50;99.90;;;;;;4941867;28;20284;-96
2022/08/02 22:47:09;;;;;;;5.00;4.60;;;19.60;99.90;;;;;;4940711;28;20515;-95
2022/08/02 22:49:36;;;;;;;5.43;5.03;;;19.50;99.90;;;;;;4957528;28;20948;-96
2022/08/02 22:52:02;;;;;;;4.67;4.37;;;19.50;99.90;;;;;;4953951;28;20511;-95
2022/08/02 22:54:30;;;;;;;5.50;5.10;;;19.50;99.90;;;;;;4947121;28;20475;-94
2022/08/02 22:57:07;;;;;;;5.20;4.80;;;19.60;99.90;;;;;;4960183;28;20444;-95
2022/08/02 22:59:33;;;;;;;5.17;4.77;;;19.70;99.90;;;;;;4974255;28;20507;-93
2022/08/02 23:01:59;;;;;;;9.10;6.93;;;19.70;99.90;;;;;;4961100;28;20439;-95
2022/08/02 23:04:39;;;;;;;7.47;6.80;;;19.80;99.90;;;;;;4959908;28;20178;-96
2022/08/02 23:07:06;;;;;;;5.90;5.40;;;19.90;99.90;;;;;;4958870;28;20441;-94
